Time;durP1;ratioP1;P1;durP2;ratioP2;P2;SDS_P1;SDS_P2;PMS_P1;PMS_P2;Temp;Humidity;BMP_temperature;BMP_pressure;BME280_temperature;BME280_humidity;BME280_pressure;Samples;Min_cycle;Max_cycle;Signal;HPM_P1;HPM_P2
2023/04/02 00:01:37;;;;;;;4.78;0.20;;;;;;;-1.00;58.05;102134.19;5031510;28;20041;-68
2023/04/02 00:04:20;;;;;;;4.10;0.70;;;;;;;-1.01;58.37;102140.13;5037754;28;20827;-68
2023/04/02 00:06:48;;;;;;;3.05;0.30;;;;;;;-1.04;57.99;102150.22;5036920;28;20049;-68
2023/04/02 00:09:29;;;;;;;2.60;0.20;;;;;;;-1.06;58.36;102154.41;5032115;28;20144;-68
2023/04/02 00:11:56;;;;;;;3.55;0.30;;;;;;;-1.09;58.18;102155.13;5029162;28;20046;-68
2023/04/02 00:14:26;;;;;;;0.95;0.20;;;;;;;-1.13;58.48;102161.78;5030224;28;20055;-68
2023/04/02 00:16:54;;;;;;;10.65;0.90;;;;;;;-1.11;58.70;102163.53;5028982;28;20056;-68
2023/04/02 00:19:28;;;;;;;1.35;0.13;;;;;;;-1.14;58.70;102165.16;5036497;28;20037;-68
2023/04/02 00:21:57;;;;;;;3.25;0.20;;;;;;;-1.17;58.59;102165.00;5031657;28;20045;-68
2023/04/02 00:24:25;;;;;;;3.90;0.30;;;;;;;-1.19;58.24;102164.03;5021851;28;20059;-68
2023/04/02 00:26:53;;;;;;;1.40;0.20;;;;;;;-1.21;58.56;102165.63;5037748;28;20045;-68
2023/04/02 00:29:20;;;;;;;1.92;0.30;;;;;;;-1.21;58.90;102173.31;5032891;28;20067;-68
2023/04/02 00:31:50;;;;;;;5.43;0.20;;;;;;;-1.22;58.92;102178.38;5041869;28;20049;-68
2023/04/02 00:34:22;;;;;;;5.55;0.22;;;;;;;-1.23;58.71;102181.72;5033037;28;20047;-68
2023/04/02 00:36:49;;;;;;;2.15;0.20;;;;;;;-1.26;58.36;102181.56;5033294;28;20045;-68
2023/04/02 00:39:23;;;;;;;1.40;0.10;;;;;;;-1.30;59.19;102183.09;5037136;28;20135;-68
2023/04/02 00:41:57;;;;;;;0.47;0.03;;;;;;;-1.30;58.67;102190.78;5038199;28;20041;-68
2023/04/02 00:44:29;;;;;;;2.53;0.30;;;;;;;-1.31;59.10;102193.25;5032412;28;20504;-68
2023/04/02 00:46:56;;;;;;;2.65;0.20;;;;;;;-1.33;59.22;102195.75;5032038;28;20144;-68
2023/04/02 00:49:31;;;;;;;0.70;0.10;;;;;;;-1.33;59.04;102206.03;5030736;28;20045;-68
2023/04/02 00:52:02;;;;;;;3.38;0.20;;;;;;;-1.35;58.66;102210.16;5034639;28;20055;-68
2023/04/02 00:54:32;;;;;;;6.30;0.30;;;;;;;-1.37;59.21;102212.66;5036987;28;20394;-69
2023/04/02 00:57:01;;;;;;;3.33;0.50;;;;;;;-1.37;58.81;102214.31;5032230;28;20176;-68
2023/04/02 00:59:31;;;;;;;1.35;0.20;;;;;;;-1.37;58.83;102225.47;5035262;28;20045;-68
2023/04/02 01:02:01;;;;;;;4.60;0.30;;;;;;;-1.39;59.21;102224.50;5032182;28;20504;-69
2023/04/02 01:04:35;;;;;;;3.30;0.20;;;;;;;-1.37;59.13;102234.84;5031848;28;20107;-68
2023/04/02 01:07:05;;;;;;;3.75;0.20;;;;;;;-1.40;59.12;102234.66;5033994;28;20056;-68
2023/04/02 01:09:55;;;;;;;2.25;0.30;;;;;;;-1.47;58.85;102225.78;5034176;28;20092;-68
2023/04/02 01:12:44;;;;;;;9.57;0.22;;;;;;;-1.42;59.37;102241.41;5039122;28;20068;-69
2023/04/02 01:15:18;;;;;;;2.20;0.40;;;;;;;-1.43;59.31;102244.75;5035303;28;20409;-68
2023/04/02 01:17:59;;;;;;;2.30;0.20;;;;;;;-1.45;59.25;102252.38;5032456;28;20512;-68
2023/04/02 01:20:55;;;;;;;16.05;1.80;;;;;;;-1.46;59.09;102254.84;5040644;28;20056;-68
2023/04/02 01:23:26;;;;;;;1.50;0.22;;;;;;;-1.49;59.24;102258.13;5033611;28;20477;-68
2023/04/02 01:25:59;;;;;;;6.05;0.20;;;;;;;-1.48;59.14;102256.44;5036184;28;20498;-68
2023/04/02 01:28:32;;;;;;;0.60;0.25;;;;;;;-1.51;59.14;102262.28;5029748;28;20049;-68
2023/04/02 01:31:02;;;;;;;4.43;0.20;;;;;;;-1.53;59.30;102269.03;5045816;28;20045;-68
2023/04/02 01:33:33;;;;;;;1.42;0.20;;;;;;;-1.57;59.21;102264.50;5038819;28;20057;-68
2023/04/02 01:36:06;;;;;;;4.72;0.30;;;;;;;-1.60;59.25;102278.03;5044681;28;20131;-68
2023/04/02 01:38:40;;;;;;;2.80;0.28;;;;;;;-1.62;59.06;102278.78;5039807;28;20059;-68
2023/04/02 01:41:13;;;;;;;1.52;0.17;;;;;;;-1.65;59.14;102282.03;5044389;28;20071;-68
2023/04/02 01:43:46;;;;;;;4.78;0.20;;;;;;;-1.67;59.41;102283.63;5037968;28;20568;-68
2023/04/02 01:46:38;;;;;;;4.60;0.20;;;;;;;-1.70;59.15;102283.47;5046223;28;20048;-68
2023/04/02 01:49:13;;;;;;;0.45;0.10;;;;;;;-1.71;59.86;102289.38;5038652;28;20611;-68
2023/04/02 01:51:44;;;;;;;3.17;0.15;;;;;;;-1.76;59.79;102293.38;5038503;28;20045;-68
2023/04/02 01:54:12;;;;;;;5.38;2.00;;;;;;;-1.75;59.27;102297.69;5041838;28;20067;-68
2023/04/02 01:56:41;;;;;;;3.28;0.60;;;;;;;-1.76;59.59;102297.63;5035132;28;20048;-68
2023/04/02 01:59:10;;;;;;;2.72;0.20;;;;;;;-1.76;59.64;102306.19;5040214;28;20058;-68
2023/04/02 02:01:43;;;;;;;9.60;2.17;;;;;;;-1.76;59.98;102310.44;5043697;28;20049;-68
2023/04/02 02:04:12;;;;;;;8.93;0.30;;;;;;;-1.78;60.19;102307.75;5037915;28;20049;-68
2023/04/02 02:06:39;;;;;;;3.40;0.20;;;;;;;-1.79;60.20;102308.56;5042457;28;20049;-67
2023/04/02 02:09:13;;;;;;;2.50;0.20;;;;;;;-1.79;60.01;102316.25;5040023;28;20045;-67
2023/04/02 02:11:40;;;;;;;1.08;0.10;;;;;;;-1.80;60.09;102322.16;5042074;28;20083;-67
2023/04/02 02:14:13;;;;;;;1.35;0.13;;;;;;;-1.81;60.19;102323.84;5042338;28;20045;-67
2023/04/02 02:16:41;;;;;;;9.73;0.30;;;;;;;-1.81;60.34;102330.66;5038112;28;20585;-66
2023/04/02 02:19:20;;;;;;;2.80;0.20;;;;;;;-1.84;60.06;102327.91;5035182;28;20045;-67
2023/04/02 02:21:50;;;;;;;3.15;0.20;;;;;;;-1.83;60.07;102325.41;5039523;28;20397;-67
2023/04/02 02:24:22;;;;;;;4.50;0.20;;;;;;;-1.83;60.00;102334.78;5037173;28;20493;-67
2023/04/02 02:27:04;;;;;;;1.42;0.30;;;;;;;-1.83;60.40;102345.03;5042348;28;20045;-67
2023/04/02 02:29:37;;;;;;;1.77;0.30;;;;;;;-1.85;60.17;102341.50;5039019;28;20520;-67
2023/04/02 02:32:09;;;;;;;1.35;0.10;;;;;;;-1.86;60.38;102348.31;5041988;28;20041;-67
2023/04/02 02:34:41;;;;;;;5.22;0.20;;;;;;;-1.85;60.36;102352.66;5042308;28;20053;-67
2023/04/02 02:37:14;;;;;;;3.22;0.10;;;;;;;-1.84;60.39;102356.09;5044554;28;20044;-67
2023/04/02 02:39:44;;;;;;;4.68;0.32;;;;;;;-1.84;60.47;102358.66;5040813;28;20049;-67
2023/04/02 02:42:16;;;;;;;3.33;0.30;;;;;;;-1.82;60.26;102372.44;5036675;28;20044;-70
2023/04/02 02:44:46;;;;;;;2.05;0.40;;;;;;;-1.83;60.70;102362.97;5037176;28;20053;-70
2023/04/02 02:47:18;;;;;;;4.68;0.30;;;;;;;-1.83;60.92;102368.09;5037098;28;20045;-70
2023/04/02 02:49:49;;;;;;;1.58;0.40;;;;;;;-1.84;60.48;102366.34;5040830;28;20734;-70
2023/04/02 02:52:18;;;;;;;4.25;0.30;;;;;;;-1.85;60.33;102369.66;5028937;28;20049;-70
2023/04/02 02:54:49;;;;;;;3.97;0.17;;;;;;;-1.85;60.67;102374.78;5039518;28;20045;-70
2023/04/02 02:57:21;;;;;;;10.75;0.38;;;;;;;-1.87;60.47;102381.53;5039924;28;20155;-70
2023/04/02 02:59:50;;;;;;;3.03;0.13;;;;;;;-1.85;60.72;102383.38;5033523;28;20056;-70
2023/04/02 03:02:19;;;;;;;1.23;0.20;;;;;;;-1.86;60.77;102386.72;5033622;28;20041;-70
2023/04/02 03:04:48;;;;;;;1.20;0.20;;;;;;;-1.86;60.51;102390.97;5033540;28;20048;-70
2023/04/02 03:07:18;;;;;;;2.40;0.25;;;;;;;-1.85;60.21;102400.41;5040867;28;20045;-70
2023/04/02 03:09:52;;;;;;;1.02;0.20;;;;;;;-1.85;60.60;102410.66;5040589;28;20053;-70
2023/04/02 03:12:41;;;;;;;1.43;0.93;;;;;;;-1.87;60.26;102413.16;5037346;28;20045;-70
2023/04/02 03:15:19;;;;;;;1.63;0.10;;;;;;;-1.88;60.46;102413.94;5037183;28;20053;-70
2023/04/02 03:17:50;;;;;;;3.53;0.30;;;;;;;-1.87;60.91;102419.94;5038236;28;20411;-71
2023/04/02 03:20:25;;;;;;;0.68;0.28;;;;;;;-1.89;60.83;102422.41;5034958;28;20037;-71
2023/04/02 03:22:58;;;;;;;3.53;0.17;;;;;;;-1.90;60.56;102427.44;5041869;28;20049;-70
2023/04/02 03:25:32;;;;;;;0.55;0.22;;;;;;;-1.89;60.72;102426.66;5041069;28;20052;-71
2023/04/02 03:28:04;;;;;;;2.47;0.10;;;;;;;-1.89;60.81;102436.91;5037042;28;20103;-70
2023/04/02 03:30:38;;;;;;;4.60;0.47;;;;;;;-1.89;61.11;102444.59;5037220;28;20124;-70
2023/04/02 03:33:13;;;;;;;3.83;0.28;;;;;;;-1.91;60.66;102446.16;5033307;28;20067;-71
2023/04/02 03:35:43;;;;;;;;;;;;;;;-1.92;60.70;102446.97;5036803;28;20056;-71
2023/04/02 03:38:16;;;;;;;4.28;0.15;;;;;;;-1.93;61.17;102445.22;5035861;28;20319;-70
2023/04/02 03:40:58;;;;;;;3.65;0.20;;;;;;;-1.95;60.90;102451.91;5034073;28;20055;-71
2023/04/02 03:43:27;;;;;;;4.35;0.20;;;;;;;-1.96;60.88;102456.16;5037055;28;20042;-70
2023/04/02 03:46:00;;;;;;;1.40;0.20;;;;;;;-1.97;60.99;102459.47;5032995;28;20049;-70
2023/04/02 03:48:33;;;;;;;2.22;0.10;;;;;;;-1.99;61.33;102463.66;5040105;28;20056;-70
2023/04/02 03:51:06;;;;;;;1.02;0.20;;;;;;;-2.00;60.85;102474.66;5036768;28;20045;-69
2023/04/02 03:53:33;;;;;;;4.88;0.28;;;;;;;-1.98;60.86;102478.22;5037187;28;20048;-71
2023/04/02 03:56:02;;;;;;;0.88;0.20;;;;;;;-1.99;60.76;102485.78;5036853;28;20128;-70
2023/04/02 03:58:38;;;;;;;1.95;0.20;;;;;;;-2.00;61.19;102487.47;5038523;28;20531;-71
2023/04/02 04:01:14;;;;;;;3.17;0.17;;;;;;;-2.01;61.09;102483.16;5036965;28;20057;-70
2023/04/02 04:03:45;;;;;;;0.15;0.10;;;;;;;-2.00;60.77;102495.16;5037881;28;20045;-71
2023/04/02 04:06:21;;;;;;;8.27;0.20;;;;;;;-2.01;61.20;102487.41;5038343;28;20067;-70
2023/04/02 04:08:53;;;;;;;2.60;0.20;;;;;;;-2.02;61.37;102496.75;5034656;28;20056;-70
2023/04/02 04:11:26;;;;;;;3.80;0.68;;;;;;;-2.01;61.14;102502.75;5036927;28;20042;-70
2023/04/02 04:13:59;;;;;;;2.10;0.28;;;;;;;-2.03;61.64;102510.34;5034468;28;20095;-70
2023/04/02 04:16:31;;;;;;;1.10;0.20;;;;;;;-2.04;61.43;102506.91;5039747;28;20052;-71
2023/04/02 04:19:05;;;;;;;2.28;0.20;;;;;;;-2.05;61.35;102506.78;5005065;28;20629;-70
2023/04/02 04:21:37;;;;;;;2.25;0.17;;;;;;;-2.04;61.27;102514.56;5041339;28;20382;-70
2023/04/02 04:24:06;;;;;;;1.20;0.25;;;;;;;-2.05;61.42;102512.81;5036697;28;20111;-70
2023/04/02 04:26:42;;;;;;;8.35;0.20;;;;;;;-2.05;61.72;102522.16;5035241;28;20049;-70
2023/04/02 04:29:27;;;;;;;0.35;0.20;;;;;;;-2.06;61.10;102523.84;5036289;28;20053;-70
2023/04/02 04:31:54;;;;;;;2.80;0.50;;;;;;;-2.10;61.60;102524.44;5030194;28;20046;-70
2023/04/02 04:34:30;;;;;;;6.68;1.10;;;;;;;-2.07;61.20;102534.88;5035582;28;20103;-70
2023/04/02 04:37:01;;;;;;;2.38;0.40;;;;;;;-2.06;61.73;102539.19;5034777;28;20048;-70
2023/04/02 04:39:40;;;;;;;1.60;0.45;;;;;;;-2.06;61.67;102541.75;5032994;28;20045;-71
2023/04/02 04:42:08;;;;;;;1.90;0.25;;;;;;;-2.07;61.88;102545.13;5037904;28;20114;-70
2023/04/02 04:44:42;;;;;;;1.60;0.20;;;;;;;-2.07;61.75;102536.56;5034351;28;20059;-70
2023/04/02 04:47:15;;;;;;;2.08;0.13;;;;;;;-2.06;61.88;102558.81;5038851;28;20060;-70
2023/04/02 04:49:50;;;;;;;0.73;0.20;;;;;;;-2.05;61.60;102555.44;5036626;28;20045;-70
2023/04/02 04:52:20;;;;;;;4.07;0.22;;;;;;;-2.05;61.84;102561.47;5035396;28;20053;-70
2023/04/02 04:54:47;;;;;;;2.45;0.20;;;;;;;-2.04;61.72;102564.91;5025444;28;20573;-70
2023/04/02 04:57:27;;;;;;;3.60;0.40;;;;;;;-2.03;61.65;102566.66;5030963;28;20049;-70
2023/04/02 05:00:01;;;;;;;4.47;0.22;;;;;;;-2.07;61.92;102560.47;5028023;28;20909;-70
2023/04/02 05:02:34;;;;;;;5.28;0.20;;;;;;;-1.99;61.91;102573.78;5038433;28;20044;-70
2023/04/02 05:05:03;;;;;;;5.55;0.20;;;;;;;-1.97;61.98;102576.41;5033805;28;20053;-70
2023/04/02 05:07:36;;;;;;;2.47;0.20;;;;;;;-1.96;61.90;102583.31;5032117;28;20064;-70
2023/04/02 05:10:13;;;;;;;1.27;0.20;;;;;;;-1.93;61.95;102591.19;5032435;28;20098;-70
2023/04/02 05:12:45;;;;;;;1.58;0.20;;;;;;;-1.92;61.69;102586.13;5035786;28;20059;-70
2023/04/02 05:15:17;;;;;;;6.57;0.38;;;;;;;-1.88;61.72;102592.31;5034219;28;20393;-70
2023/04/02 05:17:53;;;;;;;3.70;0.20;;;;;;;-1.87;61.46;102599.25;5035906;28;20060;-70
2023/04/02 05:20:26;;;;;;;0.90;0.22;;;;;;;-1.85;61.71;102602.75;5035746;28;20083;-70
2023/04/02 05:22:58;;;;;;;0.88;0.20;;;;;;;-1.81;61.45;102609.84;5035693;28;20794;-71
2023/04/02 05:25:27;;;;;;;3.03;0.15;;;;;;;-1.77;61.51;102605.81;5033661;28;20136;-69
2023/04/02 05:28:01;;;;;;;5.70;0.43;;;;;;;-1.74;62.14;102604.31;5035691;28;20056;-70
2023/04/02 05:30:53;;;;;;;6.47;1.05;;;;;;;-1.70;61.32;102610.53;5033852;28;20049;-70
2023/04/02 05:33:24;;;;;;;2.22;0.15;;;;;;;-1.67;61.39;102608.16;5026435;28;20055;-70
2023/04/02 05:35:58;;;;;;;4.55;1.08;;;;;;;-1.65;61.66;102606.53;5036897;28;21574;-70
2023/04/02 05:38:28;;;;;;;2.47;0.20;;;;;;;-1.63;61.40;102610.97;5034923;28;20045;-70
2023/04/02 05:41:01;;;;;;;1.88;0.30;;;;;;;-1.61;61.49;102619.63;5039857;28;20595;-70
2023/04/02 05:43:31;;;;;;;8.18;0.30;;;;;;;-1.60;61.58;102608.59;5036295;28;20042;-70
2023/04/02 05:46:03;;;;;;;4.07;0.20;;;;;;;-1.56;61.77;102613.94;5036455;28;20048;-70
2023/04/02 05:48:34;;;;;;;3.65;0.22;;;;;;;-1.51;61.66;102625.31;5031796;28;20055;-70
2023/04/02 05:51:04;;;;;;;2.05;0.20;;;;;;;-1.50;61.08;102616.84;5032615;28;20069;-72
2023/04/02 05:53:34;;;;;;;4.43;0.22;;;;;;;-1.47;61.34;102622.16;5032135;28;20040;-70
2023/04/02 05:56:05;;;;;;;5.18;0.20;;;;;;;-1.42;61.29;102620.78;5035745;28;20052;-72
2023/04/02 05:58:37;;;;;;;1.95;0.40;;;;;;;-1.39;61.45;102631.19;5034487;28;20055;-71
2023/04/02 06:01:20;;;;;;;2.97;0.20;;;;;;;-1.35;61.24;102638.28;5034845;28;20155;-70
2023/04/02 06:03:53;;;;;;;4.32;0.22;;;;;;;-1.34;61.38;102637.47;5030016;28;20072;-70
2023/04/02 06:06:35;;;;;;;6.72;0.73;;;;;;;-1.28;61.30;102645.56;5031769;28;20045;-70
2023/04/02 06:09:10;;;;;;;0.43;0.10;;;;;;;-1.24;61.03;102646.59;5037721;28;20042;-70
2023/04/02 06:11:44;;;;;;;2.90;0.15;;;;;;;-1.19;61.39;102647.78;5040038;28;20045;-71
2023/04/02 06:14:13;;;;;;;2.85;0.20;;;;;;;-1.15;60.69;102654.84;5033001;28;20052;-70
2023/04/02 06:16:41;;;;;;;5.63;0.10;;;;;;;-1.12;61.27;102657.59;5039171;28;20512;-70
2023/04/02 06:19:16;;;;;;;4.95;0.17;;;;;;;-1.07;60.60;102655.31;5038692;28;20158;-70
2023/04/02 06:21:49;;;;;;;3.80;0.35;;;;;;;-1.03;60.75;102657.25;5036158;28;20049;-70
2023/04/02 06:24:19;;;;;;;4.60;0.20;;;;;;;-0.97;60.95;102662.72;5040014;28;20056;-70
2023/04/02 06:26:53;;;;;;;3.60;0.17;;;;;;;-0.94;61.15;102658.69;5037830;28;20045;-70
2023/04/02 06:29:26;;;;;;;6.10;0.30;;;;;;;-0.89;61.07;102660.63;5042824;28;20482;-70
2023/04/02 06:31:56;;;;;;;2.95;0.20;;;;;;;-0.84;61.04;102659.22;5035447;28;20759;-70
2023/04/02 06:34:25;;;;;;;1.88;0.40;;;;;;;-0.83;60.59;102656.72;5038769;28;20103;-70
2023/04/02 06:36:57;;;;;;;3.53;0.20;;;;;;;-0.75;61.09;102668.31;5041846;28;20049;-70
2023/04/02 06:39:26;;;;;;;0.40;0.20;;;;;;;-0.71;60.39;102670.28;5037968;28;20051;-70
2023/04/02 06:42:01;;;;;;;4.55;0.30;;;;;;;-0.65;60.55;102674.00;5039243;28;20532;-70
2023/04/02 06:44:32;;;;;;;3.58;0.30;;;;;;;-0.61;60.14;102673.38;5034762;28;20470;-70
2023/04/02 06:47:02;;;;;;;1.13;0.20;;;;;;;-0.56;60.56;102675.41;5038959;28;20046;-70
2023/04/02 06:49:36;;;;;;;3.42;0.30;;;;;;;-0.50;60.20;102677.44;5041631;28;20057;-70
2023/04/02 06:52:11;;;;;;;2.78;0.32;;;;;;;-0.44;60.22;102682.03;5036362;28;20055;-70
2023/04/02 06:54:38;;;;;;;1.83;0.17;;;;;;;-0.40;60.08;102681.41;5039038;28;20425;-70
2023/04/02 06:57:07;;;;;;;5.70;0.30;;;;;;;-0.37;60.16;102685.06;5039485;28;20662;-71
2023/04/02 06:59:33;;;;;;;1.48;0.20;;;;;;;-0.32;59.60;102683.59;5034722;28;20158;-71
2023/04/02 07:02:05;;;;;;;3.20;0.20;;;;;;;-0.26;60.22;102686.56;5038886;28;20045;-70
2023/04/02 07:04:33;;;;;;;1.92;0.35;;;;;;;-0.20;59.63;102682.53;5032972;28;20401;-70
2023/04/02 07:06:59;;;;;;;4.18;0.52;;;;;;;-0.16;59.96;102695.63;5040138;28;20084;-70
2023/04/02 07:09:28;;;;;;;1.10;0.40;;;;;;;-0.10;60.30;102695.09;5030174;28;20041;-70
2023/04/02 07:11:54;;;;;;;0.85;0.15;;;;;;;-0.05;59.37;102699.69;5035231;28;20621;-70
2023/04/02 07:14:21;;;;;;;1.00;0.22;;;;;;;0.02;59.68;102702.59;5037208;28;20046;-70
2023/04/02 07:16:48;;;;;;;4.38;0.22;;;;;;;0.08;59.16;102700.38;5036843;28;20482;-70
2023/04/02 07:19:19;;;;;;;2.45;0.30;;;;;;;0.16;59.68;102701.69;5037398;28;20559;-70
2023/04/02 07:21:46;;;;;;;2.17;0.40;;;;;;;0.24;59.81;102702.09;5042310;28;20049;-70
2023/04/02 07:24:14;;;;;;;2.42;0.20;;;;;;;0.31;59.22;102707.63;5036552;28;20470;-70
2023/04/02 07:26:42;;;;;;;1.05;0.20;;;;;;;0.40;59.07;102707.28;5033491;28;20132;-70
2023/04/02 07:29:14;;;;;;;5.78;0.30;;;;;;;0.49;59.12;102705.19;5038743;28;20508;-70
2023/04/02 07:31:41;;;;;;;3.15;0.20;;;;;;;0.56;58.62;102707.28;5031604;28;20049;-70
2023/04/02 07:34:09;;;;;;;2.30;0.20;;;;;;;0.69;59.50;102710.53;5040419;28;20049;-70
2023/04/02 07:36:36;;;;;;;2.33;0.40;;;;;;;0.78;57.87;102719.59;5035945;28;20080;-70
2023/04/02 07:39:04;;;;;;;1.02;0.13;;;;;;;0.91;58.29;102721.13;5040745;28;20049;-71
2023/04/02 07:41:30;;;;;;;7.13;0.28;;;;;;;1.03;58.44;102721.78;5034169;28;20060;-70
2023/04/02 07:43:59;;;;;;;4.15;0.20;;;;;;;1.13;58.65;102724.00;5038585;28;20591;-70
2023/04/02 07:46:26;;;;;;;4.60;0.30;;;;;;;1.26;57.80;102730.69;5039106;28;20045;-70
2023/04/02 07:48:52;;;;;;;1.35;0.35;;;;;;;1.39;58.29;102718.41;5039041;28;20063;-70
2023/04/02 07:51:21;;;;;;;2.80;0.25;;;;;;;1.51;57.46;102725.06;5035490;28;20393;-70
2023/04/02 07:53:54;;;;;;;1.70;0.50;;;;;;;1.66;57.59;102726.63;5038613;28;20059;-70
2023/04/02 07:56:22;;;;;;;2.42;0.30;;;;;;;1.78;57.97;102727.22;5033100;28;20045;-70
2023/04/02 07:58:49;;;;;;;1.17;0.22;;;;;;;1.94;57.96;102731.44;5041360;28;20049;-70
2023/04/02 08:01:22;;;;;;;3.03;0.13;;;;;;;2.09;57.18;102733.88;5033629;28;20049;-70
2023/04/02 08:03:49;;;;;;;2.78;0.28;;;;;;;2.21;57.09;102731.88;5034823;28;20050;-70
2023/04/02 08:06:16;;;;;;;4.60;0.40;;;;;;;2.33;57.23;102740.16;5037611;28;20519;-70
2023/04/02 08:08:43;;;;;;;0.88;0.10;;;;;;;2.40;56.91;102725.88;5036102;28;20045;-71
2023/04/02 08:11:10;;;;;;;3.95;0.65;;;;;;;2.59;56.89;102743.97;5037719;28;20053;-70
2023/04/02 08:13:37;;;;;;;2.25;0.65;;;;;;;2.73;55.91;102752.31;5039979;28;20046;-70
2023/04/02 08:16:06;;;;;;;2.72;0.20;;;;;;;2.84;56.53;102747.66;5035854;28;20042;-70
2023/04/02 08:18:35;;;;;;;3.90;0.30;;;;;;;3.00;55.63;102744.94;5036544;28;20051;-70
2023/04/02 08:21:01;;;;;;;3.88;0.30;;;;;;;3.14;56.00;102751.59;5041561;28;20084;-70
2023/04/02 08:23:28;;;;;;;3.28;0.90;;;;;;;3.26;54.00;102751.25;5036760;28;20059;-71
2023/04/02 08:25:55;;;;;;;4.15;0.55;;;;;;;3.41;54.69;102757.88;5036336;28;20049;-72
2023/04/02 08:28:22;;;;;;;3.03;0.45;;;;;;;3.51;54.98;102757.47;5038886;28;20050;-70
2023/04/02 08:30:50;;;;;;;1.20;0.22;;;;;;;3.62;54.20;102761.38;5035009;28;20045;-70
2023/04/02 08:33:17;;;;;;;2.20;0.20;;;;;;;3.73;54.25;102766.97;5039107;28;20417;-70
2023/04/02 08:35:46;;;;;;;4.72;0.20;;;;;;;3.82;53.36;102764.81;5035527;28;20390;-70
2023/04/02 08:38:15;;;;;;;3.60;0.25;;;;;;;3.91;53.88;102770.34;5036757;28;20535;-70
2023/04/02 08:40:43;;;;;;;3.05;0.38;;;;;;;3.97;53.57;102775.75;5034642;28;20061;-70
2023/04/02 08:43:31;;;;;;;5.97;0.30;;;;;;;4.06;53.88;102776.13;5041760;28;20059;-71
2023/04/02 08:46:07;;;;;;;1.05;0.20;;;;;;;4.13;53.86;102779.84;5030527;28;20520;-70
2023/04/02 08:48:37;;;;;;;7.13;0.40;;;;;;;4.17;53.83;102792.06;5033260;28;20046;-70
2023/04/02 08:51:08;;;;;;;3.22;0.20;;;;;;;4.23;53.67;102792.31;5038693;28;20052;-70
2023/04/02 08:53:37;;;;;;;0.88;0.30;;;;;;;4.28;53.31;102793.38;5034498;28;20081;-70
2023/04/02 08:56:16;;;;;;;5.63;0.20;;;;;;;4.29;53.50;102792.56;5033556;28;20053;-71
2023/04/02 08:58:44;;;;;;;5.00;0.40;;;;;;;4.31;52.90;102796.94;5036176;28;20109;-70
2023/04/02 09:01:21;;;;;;;4.20;0.30;;;;;;;4.34;53.18;102802.22;5035799;28;20049;-70
2023/04/02 09:03:51;;;;;;;3.30;0.38;;;;;;;4.35;53.17;102806.56;5040891;28;20052;-70
2023/04/02 09:06:21;;;;;;;2.72;0.43;;;;;;;4.35;53.50;102806.56;5033912;28;20172;-70
2023/04/02 09:08:51;;;;;;;1.83;0.20;;;;;;;4.34;53.38;102815.16;5035539;28;20413;-70
2023/04/02 09:11:23;;;;;;;0.95;0.15;;;;;;;4.33;53.39;102805.66;5034088;28;20461;-72
2023/04/02 09:13:55;;;;;;;2.10;0.20;;;;;;;4.33;53.17;102821.16;5040087;28;20053;-70
2023/04/02 09:16:34;;;;;;;2.17;0.40;;;;;;;4.37;53.20;102829.09;5037864;28;20056;-70
2023/04/02 09:19:01;;;;;;;4.38;0.30;;;;;;;4.39;53.14;102836.94;5037378;28;21325;-70
2023/04/02 09:21:46;;;;;;;4.68;0.20;;;;;;;4.42;53.47;102819.81;5036724;28;20049;-70
2023/04/02 09:24:13;;;;;;;2.03;0.20;;;;;;;4.42;53.49;102837.06;5035290;28;20041;-70
2023/04/02 09:26:40;;;;;;;5.60;0.50;;;;;;;4.38;53.82;102829.97;5033637;28;20051;-71
2023/04/02 09:29:48;;;;;;;4.60;0.30;;;;;;;4.37;53.98;102841.16;5035573;28;20127;-70
2023/04/02 09:32:44;;;;;;;1.00;0.13;;;;;;;4.34;53.98;102849.69;5007802;28;20059;-71
2023/04/02 09:35:14;;;;;;;;;;;;;;;4.29;54.11;102849.47;5033840;28;20136;-71
2023/04/02 09:37:43;;;;;;;2.65;0.20;;;;;;;4.27;54.27;102847.69;5034538;28;20288;-70
2023/04/02 09:40:32;;;;;;;2.13;0.20;;;;;;;4.28;54.45;102859.78;5034788;28;20048;-70
2023/04/02 09:43:11;;;;;;;2.63;0.22;;;;;;;4.29;54.43;102867.59;5035010;28;20053;-70
2023/04/02 09:45:40;;;;;;;3.90;0.20;;;;;;;4.32;54.00;102865.94;5031735;28;20464;-70
2023/04/02 09:48:22;;;;;;;1.55;0.22;;;;;;;4.35;54.18;102869.53;5035180;28;20044;-70
2023/04/02 09:50:49;;;;;;;2.88;0.20;;;;;;;4.33;53.84;102863.44;5035780;28;20051;-70
2023/04/02 09:53:30;;;;;;;8.70;0.50;;;;;;;4.43;53.95;102875.03;5034793;28;20049;-70
2023/04/02 09:56:11;;;;;;;1.65;0.30;;;;;;;4.47;53.98;102875.22;5040144;28;20049;-70
2023/04/02 09:58:39;;;;;;;8.63;0.30;;;;;;;4.50;53.63;102875.34;5032451;28;20053;-70
2023/04/02 10:01:10;;;;;;;2.28;0.22;;;;;;;4.48;53.79;102866.63;5036599;28;20060;-70
2023/04/02 10:03:37;;;;;;;2.40;0.22;;;;;;;4.56;54.13;102866.94;5038730;28;20049;-70
2023/04/02 10:06:06;;;;;;;7.82;0.30;;;;;;;4.59;53.61;102867.06;5037652;28;20051;-71
2023/04/02 10:08:35;;;;;;;1.95;0.20;;;;;;;4.64;53.74;102873.31;5037078;28;20041;-70
2023/04/02 10:11:04;;;;;;;2.80;0.35;;;;;;;4.69;54.11;102869.19;5040567;28;20060;-70
2023/04/02 10:13:35;;;;;;;3.05;0.30;;;;;;;4.74;53.81;102878.00;5039873;28;20151;-70
2023/04/02 10:16:07;;;;;;;4.82;0.32;;;;;;;4.78;53.91;102881.63;5039541;28;20054;-71
2023/04/02 10:18:41;;;;;;;3.50;0.47;;;;;;;4.82;53.67;102880.03;5039712;28;20151;-71
2023/04/02 10:21:12;;;;;;;1.63;0.30;;;;;;;4.86;52.14;102890.56;5040379;28;20508;-70
2023/04/02 10:23:40;;;;;;;3.03;0.30;;;;;;;4.89;52.59;102898.44;5039314;28;20038;-70
2023/04/02 10:26:42;;;;;;;1.33;0.28;;;;;;;4.93;52.59;102886.53;5039258;28;20053;-70
2023/04/02 10:29:24;;;;;;;5.25;0.40;;;;;;;4.96;52.39;102907.34;5036645;28;20044;-71
2023/04/02 10:31:59;;;;;;;5.38;0.50;;;;;;;4.97;52.33;102901.34;5038417;28;20055;-70
2023/04/02 10:34:39;;;;;;;0.73;0.10;;;;;;;5.00;52.26;102919.59;5041823;28;20409;-71
2023/04/02 10:37:24;;;;;;;6.00;0.20;;;;;;;5.02;51.35;102914.47;5041415;28;20053;-70
2023/04/02 10:39:57;;;;;;;1.90;0.15;;;;;;;5.02;50.83;102922.25;5037354;28;20052;-70
2023/04/02 10:42:29;;;;;;;1.33;0.10;;;;;;;5.01;51.44;102938.59;5039516;28;20046;-70
2023/04/02 10:45:03;;;;;;;1.77;0.10;;;;;;;5.01;51.68;102931.72;5036979;28;20049;-70
2023/04/02 10:47:40;;;;;;;5.50;0.15;;;;;;;5.03;51.30;102943.00;5036468;28;20052;-70
2023/04/02 10:50:25;;;;;;;1.05;0.20;;;;;;;5.00;49.78;102937.72;5039052;28;20052;-70
2023/04/02 10:53:00;;;;;;;4.70;0.60;;;;;;;4.98;50.11;102949.75;5035865;28;20060;-70
2023/04/02 10:55:33;;;;;;;0.40;0.10;;;;;;;4.96;49.32;102972.97;5035376;28;20052;-71
2023/04/02 10:58:06;;;;;;;1.00;0.10;;;;;;;4.95;49.19;102965.13;5039755;28;20054;-70
2023/04/02 11:00:36;;;;;;;6.10;0.68;;;;;;;4.93;49.23;102966.81;5036400;28;20064;-71
2023/04/02 11:03:08;;;;;;;2.30;0.25;;;;;;;4.93;48.95;102966.81;5040540;28;20412;-70
2023/04/02 11:05:43;;;;;;;0.32;0.10;;;;;;;4.92;48.82;102968.53;5038007;28;20065;-71
2023/04/02 11:08:17;;;;;;;3.38;0.20;;;;;;;4.91;48.40;102981.38;5035000;28;20044;-69
2023/04/02 11:10:48;;;;;;;2.28;0.20;;;;;;;4.89;48.36;102977.84;5037660;28;20045;-70
2023/04/02 11:13:22;;;;;;;3.63;0.30;;;;;;;4.85;48.84;102978.56;5028705;28;20046;-70
2023/04/02 11:15:50;;;;;;;3.00;0.10;;;;;;;4.84;48.47;102980.28;5030851;28;20041;-70
2023/04/02 11:18:26;;;;;;;5.85;0.20;;;;;;;4.81;48.91;102987.00;5035190;28;20048;-70
2023/04/02 11:21:02;;;;;;;2.10;0.10;;;;;;;4.81;48.36;102992.19;5039831;28;20056;-70
2023/04/02 11:23:35;;;;;;;1.00;0.10;;;;;;;4.80;48.12;103000.78;5034385;28;20048;-71
2023/04/02 11:26:31;;;;;;;1.25;0.10;;;;;;;4.80;48.19;103008.56;5037270;28;20051;-70
2023/04/02 11:29:17;;;;;;;1.73;0.10;;;;;;;4.76;45.06;103017.03;5033580;28;20068;-70
2023/04/02 11:31:45;;;;;;;0.98;0.05;;;;;;;4.73;45.78;103026.44;5027391;28;20474;-70
2023/04/02 11:34:15;;;;;;;1.33;0.10;;;;;;;4.71;45.24;103028.06;5031731;28;20049;-70
2023/04/02 11:37:04;;;;;;;1.75;0.05;;;;;;;4.69;44.50;103027.09;5035681;28;20057;-70
2023/04/02 11:39:56;;;;;;;2.78;0.10;;;;;;;4.65;44.32;103043.34;5036436;28;20087;-70
2023/04/02 11:42:32;;;;;;;0.25;0.00;;;;;;;4.62;43.48;103038.03;5029663;28;20139;-70
2023/04/02 11:45:21;;;;;;;0.35;0.05;;;;;;;4.56;42.94;103037.78;5034440;28;20045;-70
2023/04/02 11:48:22;;;;;;;0.85;0.15;;;;;;;4.53;43.81;103047.13;5034972;28;20053;-70
2023/04/02 11:50:48;;;;;;;2.10;0.20;;;;;;;4.50;42.63;103066.00;5038827;28;20045;-70
2023/04/02 11:53:22;;;;;;;2.88;0.20;;;;;;;4.46;42.88;103059.78;5037440;28;20037;-69
2023/04/02 11:56:09;;;;;;;0.57;0.10;;;;;;;4.45;43.08;103060.59;5034647;28;20072;-70